Time;durP1;ratioP1;P1;durP2;ratioP2;P2;SDS_P1;SDS_P2;PMS_P1;PMS_P2;Temp;Humidity;BMP_temperature;BMP_pressure;BME280_temperature;BME280_humidity;BME280_pressure;Samples;Min_cycle;Max_cycle;Signal;HPM_P1;HPM_P2
2022/08/14 00:00:39;;;;;;;8.40;6.40;;;20.00;99.90;;;;;;5002105;28;20049;-85
2022/08/14 00:03:04;;;;;;;9.18;6.93;;;20.00;99.90;;;;;;5029008;28;20061;-85
2022/08/14 00:05:34;;;;;;;7.75;6.88;;;19.90;99.90;;;;;;5021139;28;20045;-84
2022/08/14 00:07:59;;;;;;;7.90;7.03;;;19.90;99.90;;;;;;5027345;28;20041;-85
2022/08/14 00:10:25;;;;;;;8.82;7.07;;;19.90;99.90;;;;;;5020735;28;20064;-85
2022/08/14 00:12:54;;;;;;;9.68;6.93;;;19.90;99.90;;;;;;5029048;28;20041;-85
2022/08/14 00:15:34;;;;;;;7.82;6.68;;;19.80;99.90;;;;;;5022649;28;20512;-85
2022/08/14 00:18:01;;;;;;;8.63;7.13;;;19.80;99.90;;;;;;5010656;28;20033;-85
2022/08/14 00:20:35;;;;;;;7.70;6.63;;;19.80;99.90;;;;;;5010167;28;20048;-85
2022/08/14 00:23:01;;;;;;;8.13;7.32;;;19.80;99.90;;;;;;5002251;28;20033;-84
2022/08/14 00:25:27;;;;;;;8.10;7.25;;;19.80;99.90;;;;;;4988393;28;20483;-86
2022/08/14 00:27:54;;;;;;;9.15;7.20;;;19.80;99.90;;;;;;5009893;28;20161;-85
2022/08/14 00:30:20;;;;;;;9.73;7.03;;;19.70;99.90;;;;;;5004528;28;20045;-84
2022/08/14 00:32:46;;;;;;;7.60;6.90;;;19.60;99.90;;;;;;4995068;28;20033;-85
2022/08/14 00:35:12;;;;;;;9.32;6.88;;;19.60;99.90;;;;;;5010880;28;20043;-84
2022/08/14 00:37:43;;;;;;;8.23;7.25;;;19.50;99.90;;;;;;4993358;28;20099;-84
2022/08/14 00:40:12;;;;;;;9.80;8.45;;;19.40;99.90;;;;;;5033208;28;20365;-85
2022/08/14 00:42:39;;;;;;;10.15;7.97;;;19.30;99.90;;;;;;4995943;28;20120;-86
2022/08/14 00:45:07;;;;;;;11.68;8.55;;;19.30;99.90;;;;;;4994863;28;20029;-85
2022/08/14 00:47:34;;;;;;;10.75;8.40;;;19.30;99.90;;;;;;4989492;28;20238;-85
2022/08/14 00:50:06;;;;;;;10.98;8.73;;;19.30;99.90;;;;;;5003876;28;20045;-86
2022/08/14 00:52:32;;;;;;;9.23;8.30;;;19.40;99.90;;;;;;5005620;28;20100;-85
2022/08/14 00:54:58;;;;;;;10.00;8.00;;;19.30;1.00;;;;;;4992349;28;20059;-86
2022/08/14 00:57:27;;;;;;;10.25;8.20;;;19.30;99.90;;;;;;4995189;28;20049;-84
2022/08/14 00:59:56;;;;;;;8.75;7.82;;;19.20;1.00;;;;;;5022562;28;20046;-85
2022/08/14 01:02:23;;;;;;;11.02;8.63;;;19.20;1.00;;;;;;5008005;28;20471;-85
2022/08/14 01:04:53;;;;;;;9.70;8.27;;;19.30;1.00;;;;;;4992093;28;20121;-85
2022/08/14 01:07:21;;;;;;;9.38;8.48;;;19.10;99.90;;;;;;5004228;28;20056;-85
2022/08/14 01:09:53;;;;;;;11.45;7.97;;;19.10;1.00;;;;;;5025401;28;20042;-86
2022/08/14 01:12:26;;;;;;;8.52;7.72;;;19.10;1.00;;;;;;4986285;28;20038;-84
2022/08/14 01:14:54;;;;;;;9.38;8.48;;;19.10;99.90;;;;;;5020384;28;20121;-87
2022/08/14 01:21:02;;;;;;;11.00;8.18;;;19.10;1.00;;;;;;4991192;28;20063;-87
2022/08/14 01:22:55;;;;;;;10.57;8.52;;;19.00;1.00;;;;;;5024172;28;20628;-87
2022/08/14 01:25:21;;;;;;;11.07;8.75;;;19.00;1.00;;;;;;5006324;28;20072;-87
2022/08/14 01:27:47;;;;;;;9.60;8.65;;;18.90;1.00;;;;;;5027435;28;20466;-87
2022/08/14 01:30:13;;;;;;;10.52;8.80;;;18.90;81.40;;;;;;5011472;28;20029;-86
2022/08/14 01:32:39;;;;;;;10.73;9.63;;;18.90;99.30;;;;;;5005815;28;20037;-87
2022/08/14 01:35:06;;;;;;;9.98;8.90;;;18.90;99.90;;;;;;5019290;28;20391;-87
2022/08/14 01:37:32;;;;;;;9.27;8.32;;;18.90;99.90;;;;;;5000761;28;20112;-87
2022/08/14 01:39:59;;;;;;;9.23;8.32;;;18.80;99.90;;;;;;5008979;28;20038;-87
2022/08/14 01:42:28;;;;;;;9.80;8.88;;;18.80;99.90;;;;;;5025878;28;20156;-87
2022/08/14 01:44:54;;;;;;;10.95;8.88;;;18.80;99.90;;;;;;5008706;28;20033;-87
2022/08/14 01:47:20;;;;;;;10.60;9.07;;;18.80;99.90;;;;;;4985033;28;20158;-86
2022/08/14 01:49:45;;;;;;;10.23;9.13;;;18.70;99.90;;;;;;5004547;28;20121;-88
2022/08/14 01:52:14;;;;;;;11.38;10.18;;;18.80;99.90;;;;;;5005576;28;20049;-86
2022/08/14 01:54:40;;;;;;;11.20;10.05;;;18.70;99.90;;;;;;5002770;28;20046;-86
2022/08/14 01:57:10;;;;;;;13.20;9.48;;;18.70;99.90;;;;;;5009179;28;20128;-87
2022/08/14 01:59:37;;;;;;;10.95;9.38;;;18.70;99.90;;;;;;5010493;28;20038;-86
2022/08/14 02:02:13;;;;;;;10.20;9.20;;;18.70;99.90;;;;;;5007983;28;20050;-86
2022/08/14 02:04:39;;;;;;;13.88;10.30;;;18.60;99.90;;;;;;4994786;28;20034;-86
2022/08/14 02:07:08;;;;;;;11.52;10.32;;;18.60;99.90;;;;;;5003682;28;20095;-86
2022/08/14 02:09:37;;;;;;;12.27;10.10;;;18.60;99.90;;;;;;5005301;28;20116;-86
2022/08/14 02:12:05;;;;;;;11.63;9.70;;;18.60;99.90;;;;;;5011249;28;20505;-86
2022/08/14 02:14:31;;;;;;;11.43;10.38;;;18.50;99.90;;;;;;5007841;28;20068;-86
2022/08/14 02:16:59;;;;;;;12.77;9.95;;;18.60;99.90;;;;;;5029704;28;20057;-86
2022/08/14 02:19:30;;;;;;;12.45;10.57;;;18.50;99.90;;;;;;5019148;28;20041;-87
2022/08/14 02:21:58;;;;;;;14.05;10.90;;;18.50;99.90;;;;;;5027236;28;20073;-87
2022/08/14 02:24:28;;;;;;;11.82;10.15;;;18.50;1.00;;;;;;5004613;28;20112;-87
2022/08/14 02:26:55;;;;;;;12.57;10.02;;;18.40;99.90;;;;;;5014027;28;20037;-86
2022/08/14 02:29:22;;;;;;;13.27;11.18;;;18.40;99.90;;;;;;5007818;28;20132;-87
2022/08/14 02:31:54;;;;;;;11.55;10.35;;;18.40;1.00;;;;;;5026567;28;20124;-87
2022/08/14 02:34:20;;;;;;;14.18;12.88;;;18.30;1.00;;;;;;5006991;28;20497;-86
2022/08/14 02:36:48;;;;;;;12.27;11.05;;;18.20;39.30;;;;;;5023886;28;20039;-86
2022/08/14 02:39:15;;;;;;;12.48;11.27;;;18.10;1.00;;;;;;4982975;28;20045;-87
2022/08/14 02:41:41;;;;;;;11.32;10.23;;;18.10;1.00;;;;;;5024250;28;20066;-87
2022/08/14 02:44:09;;;;;;;15.25;12.25;;;18.00;1.00;;;;;;5031348;28;20045;-87
2022/08/14 02:46:38;;;;;;;13.52;12.23;;;18.00;1.00;;;;;;5000623;28;20037;-87
2022/08/14 02:49:07;;;;;;;12.77;11.27;;;17.90;72.10;;;;;;5003472;28;20176;-87
2022/08/14 02:51:34;;;;;;;13.55;11.18;;;18.00;96.60;;;;;;5015793;28;20397;-87
2022/08/14 02:54:00;;;;;;;13.48;11.77;;;17.90;41.00;;;;;;5041893;28;20057;-87
2022/08/14 02:56:27;;;;;;;12.50;11.23;;;17.90;74.80;;;;;;5009284;28;20533;-87
2022/08/14 02:58:55;;;;;;;19.17;12.43;;;17.90;99.60;;;;;;5019675;28;20042;-86
2022/08/14 03:01:23;;;;;;;13.00;11.65;;;17.90;82.80;;;;;;4991831;28;20067;-87
2022/08/14 03:03:49;;;;;;;12.98;11.68;;;17.90;99.90;;;;;;5003761;28;20378;-86
2022/08/14 03:06:19;;;;;;;15.07;12.05;;;18.00;1.00;;;;;;5011215;28;20433;-87
2022/08/14 03:08:45;;;;;;;13.52;12.23;;;18.00;86.10;;;;;;5002272;28;20497;-87
2022/08/14 03:11:12;;;;;;;13.57;12.15;;;18.10;99.90;;;;;;4992809;28;20738;-87
2022/08/14 03:13:46;;;;;;;13.30;11.90;;;18.00;68.20;;;;;;5010285;28;20044;-86
2022/08/14 03:16:20;;;;;;;13.43;12.05;;;18.10;87.30;;;;;;5003535;28;20049;-86
2022/08/14 03:18:48;;;;;;;13.27;11.88;;;18.10;32.90;;;;;;5034522;28;20444;-87
2022/08/14 03:21:17;;;;;;;14.63;12.77;;;18.00;1.00;;;;;;5016372;28;20077;-86
2022/08/14 03:23:49;;;;;;;13.82;12.43;;;18.00;55.90;;;;;;5009685;28;20561;-87
2022/08/14 03:26:18;;;;;;;13.77;12.25;;;18.00;7.70;;;;;;5005809;28;20042;-87
2022/08/14 03:28:49;;;;;;;14.50;12.10;;;18.00;1.00;;;;;;5011643;28;20103;-87
2022/08/14 03:31:22;;;;;;;13.85;12.45;;;18.10;1.00;;;;;;5023860;28;20049;-87
2022/08/14 03:33:50;;;;;;;13.52;12.23;;;18.00;1.00;;;;;;4991196;28;20038;-86
2022/08/14 03:36:18;;;;;;;13.63;12.20;;;18.00;1.00;;;;;;4986526;28;20485;-86
2022/08/14 03:38:49;;;;;;;14.13;12.82;;;18.00;1.00;;;;;;5002461;28;20305;-87
2022/08/14 03:41:26;;;;;;;13.75;12.20;;;18.00;1.00;;;;;;5008334;28;20040;-86
2022/08/14 03:43:56;;;;;;;14.13;12.75;;;18.00;7.00;;;;;;5023026;28;20054;-87
2022/08/14 03:46:22;;;;;;;14.57;12.50;;;17.90;99.90;;;;;;5026224;28;20045;-88
2022/08/14 03:48:49;;;;;;;17.10;13.10;;;17.90;80.40;;;;;;5008405;28;20057;-86
2022/08/14 03:51:14;;;;;;;14.60;13.10;;;17.90;1.00;;;;;;5009259;28;20045;-87
2022/08/14 03:53:48;;;;;;;13.80;12.30;;;18.00;6.00;;;;;;4990478;28;20052;-87
2022/08/14 03:56:16;;;;;;;14.10;12.60;;;17.90;1.00;;;;;;5011504;28;20372;-86
2022/08/14 03:58:45;;;;;;;13.02;11.68;;;18.00;99.90;;;;;;5035575;28;20105;-87
2022/08/14 04:01:12;;;;;;;13.07;11.80;;;17.90;1.00;;;;;;4996347;28;20091;-87
2022/08/14 04:03:38;;;;;;;14.95;11.88;;;18.00;99.90;;;;;;5029841;28;20169;-87
2022/08/14 04:06:07;;;;;;;14.00;11.75;;;18.00;97.40;;;;;;4992030;28;20091;-87
2022/08/14 04:08:35;;;;;;;13.98;12.63;;;18.00;75.90;;;;;;5016410;28;20421;-86
2022/08/14 04:11:01;;;;;;;14.48;12.65;;;18.00;99.50;;;;;;5011514;28;20065;-86
2022/08/14 04:13:27;;;;;;;15.18;12.85;;;17.90;43.30;;;;;;5040932;28;20533;-87
2022/08/14 04:15:53;;;;;;;14.40;13.00;;;17.90;9.70;;;;;;5007396;28;20038;-87
2022/08/14 04:18:21;;;;;;;18.75;13.30;;;17.90;1.00;;;;;;5012518;28;20041;-87
2022/08/14 04:20:47;;;;;;;14.23;12.82;;;17.90;20.20;;;;;;5030698;28;20785;-87
2022/08/14 04:23:14;;;;;;;13.48;12.10;;;17.90;1.00;;;;;;5006747;28;20133;-86
2022/08/14 04:25:40;;;;;;;14.55;13.05;;;17.90;1.00;;;;;;5007317;28;20200;-87
2022/08/14 04:28:06;;;;;;;14.57;13.13;;;17.90;1.00;;;;;;4986984;28;20152;-87
2022/08/14 04:30:37;;;;;;;13.90;12.40;;;17.80;1.00;;;;;;5005133;28;20041;-86
2022/08/14 04:33:03;;;;;;;16.65;12.55;;;17.90;99.90;;;;;;5006072;28;20041;-87
2022/08/14 04:35:29;;;;;;;13.73;12.38;;;17.80;6.80;;;;;;5014853;28;20204;-87
2022/08/14 04:43:35;;;;;;;15.70;14.02;;;17.90;99.90;;;;;;5005486;28;20144;-86
2022/08/14 04:46:12;;;;;;;14.80;12.45;;;17.90;23.60;;;;;;5006789;28;20415;-87
2022/08/14 04:48:38;;;;;;;13.77;12.48;;;18.00;1.00;;;;;;4989981;28;20351;-86
2022/08/14 04:51:07;;;;;;;16.00;13.13;;;18.10;1.00;;;;;;5018759;28;20499;-87
2022/08/14 04:53:34;;;;;;;13.45;12.05;;;18.20;1.00;;;;;;4993026;28;20675;-87
2022/08/14 04:56:00;;;;;;;14.90;13.27;;;18.20;51.50;;;;;;5022373;28;20042;-86
2022/08/14 04:58:28;;;;;;;13.65;12.25;;;18.30;1.00;;;;;;5024454;28;20072;-86
2022/08/14 05:00:56;;;;;;;13.43;12.07;;;18.40;1.00;;;;;;5009256;28;20083;-86
2022/08/14 05:03:30;;;;;;;14.02;12.63;;;18.40;1.00;;;;;;4989163;28;20115;-87
2022/08/14 05:05:58;;;;;;;14.57;11.87;;;18.50;1.00;;;;;;4990301;28;20511;-86
2022/08/14 05:08:24;;;;;;;14.00;12.60;;;18.60;1.00;;;;;;5026797;28;20284;-87
2022/08/14 05:10:53;;;;;;;13.30;11.93;;;18.70;99.90;;;;;;5014156;28;20064;-87
2022/08/14 05:13:20;;;;;;;13.77;12.10;;;18.80;99.90;;;;;;5006357;28;20075;-86
2022/08/14 05:15:46;;;;;;;15.73;12.60;;;18.90;99.90;;;;;;5004804;28;20504;-86
2022/08/14 05:18:17;;;;;;;13.55;12.27;;;19.00;99.90;;;;;;5007955;28;20148;-86
2022/08/14 05:20:47;;;;;;;13.77;12.40;;;19.00;99.90;;;;;;5016246;28;20870;-86
2022/08/14 05:23:14;;;;;;;13.55;12.13;;;19.10;99.90;;;;;;5009500;28;20037;-87
2022/08/14 05:25:41;;;;;;;13.77;12.38;;;19.20;99.90;;;;;;5025859;28;20116;-87
2022/08/14 05:28:11;;;;;;;13.15;11.88;;;19.30;99.90;;;;;;5007189;28;20049;-86
2022/08/14 05:30:43;;;;;;;13.85;12.38;;;19.40;99.90;;;;;;4986265;28;20046;-87
2022/08/14 05:33:08;;;;;;;13.43;12.13;;;19.50;99.90;;;;;;4992482;28;20473;-86
2022/08/14 05:35:34;;;;;;;15.43;11.98;;;19.70;99.90;;;;;;5004212;28;20132;-86
2022/08/14 05:38:06;;;;;;;13.10;11.70;;;19.80;99.90;;;;;;5005833;28;20088;-87
2022/08/14 05:40:33;;;;;;;14.02;11.65;;;19.90;99.90;;;;;;5023656;28;20068;-87
2022/08/14 05:42:59;;;;;;;13.88;12.15;;;20.00;27.60;;;;;;5027360;28;20431;-87
2022/08/14 05:45:25;;;;;;;12.90;11.60;;;20.10;3.50;;;;;;5017078;28;20091;-87
2022/08/14 05:47:51;;;;;;;14.68;11.27;;;20.20;1.00;;;;;;4991499;28;20041;-87
2022/08/14 05:50:16;;;;;;;12.35;11.15;;;20.30;1.00;;;;;;5010608;28;20588;-87
2022/08/14 05:52:42;;;;;;;12.50;11.18;;;20.40;1.00;;;;;;5025251;28;20092;-86
2022/08/14 05:55:09;;;;;;;12.57;11.27;;;20.50;1.00;;;;;;4992490;28;20257;-86
2022/08/14 05:57:51;;;;;;;16.45;11.85;;;20.50;1.00;;;;;;5025628;28;20590;-87
2022/08/14 06:00:18;;;;;;;15.23;12.52;;;20.50;1.00;;;;;;4987663;28;20121;-87
2022/08/14 06:02:44;;;;;;;15.73;11.98;;;20.60;1.00;;;;;;4991402;28;20375;-87
2022/08/14 06:05:09;;;;;;;12.43;11.23;;;20.70;1.00;;;;;;5015381;28;20494;-87
2022/08/14 06:07:36;;;;;;;12.73;11.48;;;20.70;99.90;;;;;;4990914;28;20064;-86
2022/08/14 06:10:04;;;;;;;12.68;11.48;;;20.90;99.90;;;;;;4983310;28;20113;-87
2022/08/14 06:12:30;;;;;;;12.73;11.60;;;21.00;99.90;;;;;;5016713;28;20045;-87
2022/08/14 06:14:56;;;;;;;13.52;11.40;;;21.10;99.90;;;;;;5021672;28;20043;-87
2022/08/14 06:17:22;;;;;;;13.18;11.70;;;21.20;99.90;;;;;;5012514;28;20374;-87
2022/08/14 06:19:47;;;;;;;12.68;11.32;;;21.30;99.90;;;;;;5021264;28;20508;-85
2022/08/14 06:22:13;;;;;;;15.07;10.95;;;21.40;99.90;;;;;;5011848;28;20095;-86
2022/08/14 06:24:39;;;;;;;12.88;11.57;;;21.40;99.90;;;;;;5030721;28;20114;-86
2022/08/14 06:27:04;;;;;;;12.98;11.02;;;21.60;99.90;;;;;;5038550;28;20577;-86
2022/08/14 06:29:30;;;;;;;13.40;11.50;;;21.70;99.90;;;;;;5001587;28;20132;-87
2022/08/14 06:31:57;;;;;;;12.20;11.10;;;21.70;99.90;;;;;;5014584;28;22184;-86
2022/08/14 06:34:23;;;;;;;11.57;10.48;;;21.90;99.90;;;;;;4994007;28;20116;-87
2022/08/14 06:36:48;;;;;;;12.18;10.70;;;22.00;99.90;;;;;;4981487;28;20063;-86
2022/08/14 06:39:14;;;;;;;13.40;10.35;;;22.00;99.90;;;;;;4999650;28;20053;-86
2022/08/14 06:41:41;;;;;;;11.23;10.25;;;22.20;99.90;;;;;;5023784;28;20034;-85
2022/08/14 06:44:07;;;;;;;13.60;10.23;;;22.10;99.90;;;;;;4983258;28;20062;-86
2022/08/14 06:46:33;;;;;;;11.32;10.23;;;22.30;99.90;;;;;;5000478;28;20056;-86
2022/08/14 06:49:02;;;;;;;11.18;10.18;;;22.40;99.90;;;;;;5036736;28;20041;-86
2022/08/14 06:51:28;;;;;;;11.90;10.57;;;22.50;99.90;;;;;;5000122;28;20290;-87
2022/08/14 06:53:54;;;;;;;11.35;10.18;;;22.60;99.90;;;;;;4997702;28;20129;-86
2022/08/14 06:56:20;;;;;;;11.93;10.63;;;22.60;99.90;;;;;;5023797;28;20046;-86
2022/08/14 06:58:45;;;;;;;13.70;9.93;;;22.70;99.90;;;;;;5010726;28;20538;-86
2022/08/14 07:06:42;;;;;;;13.63;10.80;;;23.00;99.90;;;;;;4996199;28;20088;-87
2022/08/14 07:09:11;;;;;;;12.43;11.20;;;23.00;99.90;;;;;;4998122;28;20536;-87
2022/08/14 07:11:37;;;;;;;11.70;10.27;;;23.00;52.70;;;;;;5017057;28;20038;-86
2022/08/14 07:14:04;;;;;;;12.93;11.32;;;23.10;56.20;;;;;;4988783;28;20033;-86
2022/08/14 07:16:30;;;;;;;11.38;10.27;;;23.10;82.70;;;;;;4988330;28;20056;-86
2022/08/14 07:18:55;;;;;;;11.30;10.20;;;23.30;60.60;;;;;;4999444;28;20042;-86
2022/08/14 07:21:21;;;;;;;12.05;10.73;;;23.30;39.30;;;;;;5008144;28;20037;-86
2022/08/14 07:23:47;;;;;;;11.23;10.02;;;23.50;6.90;;;;;;5003700;28;20048;-87
2022/08/14 07:26:13;;;;;;;10.27;9.23;;;23.50;6.20;;;;;;5014059;28;20037;-87
2022/08/14 07:28:39;;;;;;;10.02;8.95;;;23.60;1.00;;;;;;5040526;28;20750;-87
2022/08/14 07:31:08;;;;;;;9.75;8.68;;;23.70;1.00;;;;;;5013077;28;20045;-87
2022/08/14 07:33:50;;;;;;;9.63;8.48;;;23.80;1.00;;;;;;5037032;28;20156;-87
2022/08/14 07:36:17;;;;;;;9.82;8.82;;;23.90;1.00;;;;;;5001131;28;20509;-87
2022/08/14 07:38:43;;;;;;;11.13;8.90;;;24.00;1.00;;;;;;5038338;28;20044;-87
2022/08/14 07:41:11;;;;;;;10.48;9.07;;;24.00;1.00;;;;;;5007200;28;20029;-86
2022/08/14 07:43:38;;;;;;;9.65;8.75;;;24.20;1.00;;;;;;5023357;28;20040;-87
2022/08/14 07:46:05;;;;;;;10.95;8.90;;;24.30;1.00;;;;;;5026785;28;20506;-87
2022/08/14 07:48:30;;;;;;;9.05;8.15;;;24.50;1.00;;;;;;5008815;28;20041;-87
2022/08/14 07:50:56;;;;;;;8.88;7.95;;;24.60;1.00;;;;;;4988857;28;20486;-86
2022/08/14 07:53:22;;;;;;;10.73;8.40;;;24.60;99.90;;;;;;4991756;28;20104;-88
2022/08/14 07:55:48;;;;;;;9.10;8.20;;;24.60;99.90;;;;;;4994514;28;20042;-87
2022/08/14 07:58:16;;;;;;;9.48;8.38;;;24.70;99.90;;;;;;5000738;28;20088;-87
2022/08/14 08:00:43;;;;;;;10.32;8.32;;;24.90;99.90;;;;;;4986508;28;20038;-87
2022/08/14 08:03:09;;;;;;;8.38;7.53;;;25.00;99.90;;;;;;5002550;28;20058;-87
2022/08/14 08:05:37;;;;;;;8.82;7.95;;;25.10;99.90;;;;;;5018646;28;20272;-88
2022/08/14 08:08:04;;;;;;;8.50;7.60;;;25.10;99.90;;;;;;5040168;28;20053;-87
2022/08/14 08:10:31;;;;;;;7.97;7.18;;;25.20;99.90;;;;;;5007651;28;20259;-88
2022/08/14 08:13:09;;;;;;;8.05;7.35;;;25.30;99.90;;;;;;5028273;28;20321;-88
2022/08/14 08:15:52;;;;;;;8.45;7.65;;;25.50;99.90;;;;;;5013041;28;20117;-87
2022/08/14 08:18:22;;;;;;;7.93;7.13;;;25.40;99.90;;;;;;4982632;28;20045;-86
2022/08/14 08:20:51;;;;;;;7.85;7.07;;;25.50;99.90;;;;;;5005322;28;20428;-87
2022/08/14 08:23:19;;;;;;;6.95;6.32;;;25.60;99.90;;;;;;5005903;28;20123;-87
2022/08/14 08:25:48;;;;;;;7.75;7.03;;;25.60;99.90;;;;;;5006719;28;20088;-88
2022/08/14 08:28:20;;;;;;;7.55;6.65;;;25.80;99.90;;;;;;5001572;28;20069;-87
2022/08/14 08:30:48;;;;;;;7.68;6.70;;;25.90;99.90;;;;;;5009995;28;20045;-87
2022/08/14 08:33:15;;;;;;;8.25;7.22;;;26.10;99.90;;;;;;4995099;28;20081;-87
2022/08/14 08:35:42;;;;;;;10.23;6.93;;;26.00;99.90;;;;;;4989588;28;20523;-87
2022/08/14 08:38:13;;;;;;;8.10;7.35;;;26.20;99.90;;;;;;5027629;28;21757;-88
2022/08/14 08:40:45;;;;;;;7.47;6.78;;;26.20;99.90;;;;;;4997008;28;20095;-86
2022/08/14 08:43:25;;;;;;;9.55;6.90;;;26.30;99.90;;;;;;5003902;28;20113;-87
2022/08/14 08:45:55;;;;;;;8.27;6.88;;;26.50;98.60;;;;;;4985602;28;20036;-87
2022/08/14 08:48:29;;;;;;;7.07;6.38;;;26.50;92.30;;;;;;5025496;28;20045;-86
2022/08/14 08:51:00;;;;;;;9.88;6.30;;;26.40;32.20;;;;;;5027553;28;20045;-85
2022/08/14 08:53:35;;;;;;;7.45;6.32;;;26.60;31.20;;;;;;4992968;28;20092;-83
2022/08/14 08:56:02;;;;;;;7.50;6.50;;;26.80;23.30;;;;;;4993202;28;20069;-85
2022/08/14 08:58:28;;;;;;;9.27;5.95;;;26.80;1.00;;;;;;5006614;28;20529;-86
2022/08/14 09:00:56;;;;;;;8.73;6.00;;;26.90;1.00;;;;;;5027161;28;20042;-85
2022/08/14 09:03:25;;;;;;;7.55;6.78;;;27.10;1.00;;;;;;5033079;28;20068;-85
2022/08/14 09:05:53;;;;;;;6.95;6.18;;;27.10;1.00;;;;;;5007487;28;20084;-85
2022/08/14 09:08:25;;;;;;;8.57;6.28;;;27.10;1.00;;;;;;5009783;28;20030;-86
2022/08/14 09:10:53;;;;;;;6.90;6.30;;;27.20;1.00;;;;;;5027894;28;20121;-86
2022/08/14 09:13:20;;;;;;;7.75;6.25;;;27.40;1.00;;;;;;5008672;28;20136;-86
2022/08/14 09:16:05;;;;;;;6.35;5.75;;;27.60;1.00;;;;;;4988063;28;20415;-85
2022/08/14 09:18:34;;;;;;;7.93;6.35;;;27.70;1.00;;;;;;5012824;28;20038;-85
2022/08/14 09:21:03;;;;;;;7.75;6.20;;;27.70;1.00;;;;;;5007297;28;20498;-86
2022/08/14 09:23:29;;;;;;;6.40;5.88;;;27.70;99.90;;;;;;5014122;28;20030;-86
2022/08/14 09:25:54;;;;;;;6.78;6.18;;;27.80;99.90;;;;;;5007568;28;20546;-86
2022/08/14 09:28:21;;;;;;;6.85;5.93;;;27.80;99.90;;;;;;4992048;28;20061;-85
2022/08/14 09:30:53;;;;;;;5.70;5.20;;;27.70;99.90;;;;;;5004559;28;20061;-86
2022/08/14 09:33:32;;;;;;;7.40;5.30;;;27.90;99.90;;;;;;5013845;28;20179;-85
2022/08/14 09:36:17;;;;;;;6.30;5.70;;;28.10;99.90;;;;;;4985677;28;20043;-85
2022/08/14 09:39:28;;;;;;;6.43;5.93;;;28.20;99.90;;;;;;4992668;28;20037;-86
2022/08/14 09:42:15;;;;;;;7.53;5.70;;;28.40;99.90;;;;;;5011955;28;20080;-86
2022/08/14 09:45:05;;;;;;;5.50;4.70;;;28.50;99.90;;;;;;5022696;28;20034;-86
2022/08/14 09:47:45;;;;;;;5.85;5.25;;;28.60;99.90;;;;;;5027576;28;20049;-86
2022/08/14 09:50:20;;;;;;;6.95;5.75;;;28.70;99.90;;;;;;5001145;28;20124;-87
2022/08/14 09:52:51;;;;;;;7.25;5.50;;;28.80;99.90;;;;;;5011052;28;20128;-86
2022/08/14 09:55:18;;;;;;;6.57;5.90;;;28.80;99.90;;;;;;5005222;28;20038;-85
2022/08/14 09:57:45;;;;;;;6.35;5.75;;;28.60;99.90;;;;;;5006572;28;20022;-85
2022/08/14 10:00:15;;;;;;;7.70;5.60;;;28.80;99.90;;;;;;5004177;28;20073;-86
2022/08/14 10:02:52;;;;;;;6.03;5.43;;;28.70;99.90;;;;;;4987337;28;20050;-86
2022/08/14 10:05:34;;;;;;;6.28;5.22;;;28.90;99.90;;;;;;5015123;28;20112;-85
2022/08/14 10:08:01;;;;;;;6.65;5.40;;;29.20;99.90;;;;;;5022864;28;20061;-86
2022/08/14 10:10:30;;;;;;;6.28;5.22;;;29.20;99.90;;;;;;4989340;28;20037;-86
2022/08/14 10:12:56;;;;;;;5.28;4.78;;;29.10;99.90;;;;;;5018363;28;20556;-85
2022/08/14 10:15:27;;;;;;;5.25;4.75;;;29.20;99.90;;;;;;5003678;28;20060;-85
2022/08/14 10:18:17;;;;;;;5.20;4.70;;;29.30;99.90;;;;;;4985487;28;20480;-86
2022/08/14 10:20:56;;;;;;;4.93;4.53;;;29.30;99.90;;;;;;5009719;28;20128;-83
2022/08/14 10:23:51;;;;;;;5.22;4.70;;;29.30;99.90;;;;;;5006449;28;20137;-84
2022/08/14 10:26:19;;;;;;;5.60;4.88;;;29.70;99.90;;;;;;5008405;28;20041;-86
2022/08/14 10:28:48;;;;;;;5.10;4.70;;;29.50;99.90;;;;;;5014978;28;20505;-86
2022/08/14 10:31:16;;;;;;;6.43;4.20;;;29.70;99.90;;;;;;5039608;28;20092;-86
2022/08/14 10:33:42;;;;;;;5.72;4.60;;;29.60;99.90;;;;;;4993601;28;20041;-85
2022/08/14 10:36:08;;;;;;;4.72;4.28;;;29.70;99.90;;;;;;5015174;28;20034;-86
2022/08/14 10:38:36;;;;;;;4.72;4.30;;;29.60;99.90;;;;;;5004244;28;20444;-83
2022/08/14 10:41:40;;;;;;;5.05;4.40;;;29.80;99.90;;;;;;5040297;28;20394;-84
2022/08/14 10:44:15;;;;;;;5.10;4.43;;;29.90;99.90;;;;;;5015328;28;20319;-84
2022/08/14 10:46:42;;;;;;;;;;;30.10;99.90;;;;;;5010062;28;20077;-83
2022/08/14 10:49:20;;;;;;;4.60;4.20;;;30.20;99.90;;;;;;5002941;28;19921;-86
2022/08/14 10:52:05;;;;;;;5.35;4.28;;;29.90;99.90;;;;;;5011068;28;20038;-85
2022/08/14 10:54:32;;;;;;;;;;;30.00;99.90;;;;;;5008995;28;20114;-85
2022/08/14 10:57:12;;;;;;;6.43;4.72;;;30.30;99.90;;;;;;5002670;28;19965;-86
2022/08/14 10:59:44;;;;;;;5.90;4.70;;;30.50;99.90;;;;;;5007525;28;20571;-85
2022/08/14 11:02:19;;;;;;;5.50;4.80;;;30.40;99.90;;;;;;4995199;28;20054;-86
2022/08/14 11:05:06;;;;;;;;;;;30.50;99.90;;;;;;5012614;28;20037;-86
2022/08/14 11:07:38;;;;;;;5.15;4.65;;;30.50;99.90;;;;;;5007949;28;20407;-85
2022/08/14 11:10:12;;;;;;;4.50;4.10;;;30.60;99.90;;;;;;5011102;28;20469;-85
2022/08/14 11:12:47;;;;;;;4.97;4.30;;;30.60;99.90;;;;;;5010738;28;20073;-85
2022/08/14 11:15:19;;;;;;;4.68;4.13;;;30.70;99.90;;;;;;5026340;28;20041;-85
2022/08/14 11:17:47;;;;;;;5.10;4.60;;;30.70;99.90;;;;;;5010947;28;20034;-85
2022/08/14 11:20:17;;;;;;;6.40;4.25;;;30.80;99.90;;;;;;5013968;28;20034;-86
2022/08/14 11:22:44;;;;;;;4.60;4.20;;;31.10;99.90;;;;;;4988998;28;20165;-85
2022/08/14 11:25:12;;;;;;;7.75;4.70;;;31.20;99.90;;;;;;5009005;28;20045;-85
2022/08/14 11:27:43;;;;;;;4.70;4.30;;;31.20;99.90;;;;;;4984958;28;20543;-85
2022/08/14 11:30:12;;;;;;;5.10;4.60;;;31.40;99.90;;;;;;5002874;28;20048;-85
2022/08/14 11:32:47;;;;;;;5.63;5.07;;;31.10;99.90;;;;;;5002439;28;20124;-85
2022/08/14 11:35:18;;;;;;;6.55;5.03;;;31.20;93.90;;;;;;5006107;28;20045;-85
2022/08/14 11:38:00;;;;;;;6.90;5.10;;;31.20;69.90;;;;;;5006593;28;20059;-87
2022/08/14 11:40:35;;;;;;;7.68;5.13;;;31.50;83.30;;;;;;5004698;28;20118;-86
2022/08/14 11:43:03;;;;;;;5.50;5.05;;;31.50;78.40;;;;;;4990310;28;20046;-85
2022/08/14 11:45:35;;;;;;;5.47;4.97;;;31.90;90.90;;;;;;5014004;28;20037;-86
2022/08/14 11:48:20;;;;;;;6.15;5.25;;;32.00;88.30;;;;;;4985445;28;20038;-85
2022/08/14 11:50:47;;;;;;;;;;;32.10;78.90;;;;;;5027080;28;20033;-85
2022/08/14 11:53:22;;;;;;;5.68;4.97;;;32.10;58.00;;;;;;5026488;28;19924;-86
2022/08/14 11:55:58;;;;;;;5.65;5.05;;;32.00;49.80;;;;;;5013259;28;20092;-85
2022/08/14 11:58:30;;;;;;;5.35;4.85;;;32.10;36.90;;;;;;5011496;28;20124;-84
2022/08/14 12:01:01;;;;;;;7.13;5.47;;;32.00;40.30;;;;;;5012073;28;20120;-85
2022/08/14 12:03:44;;;;;;;6.75;5.97;;;32.30;40.60;;;;;;5019162;28;20073;-85
2022/08/14 12:06:16;;;;;;;5.93;4.93;;;32.30;22.50;;;;;;5033413;28;20564;-84
2022/08/14 12:08:43;;;;;;;5.47;4.93;;;32.60;24.20;;;;;;5028997;28;20076;-83
2022/08/14 12:11:12;;;;;;;5.65;5.05;;;32.40;14.50;;;;;;5029330;28;20068;-85
2022/08/14 12:13:39;;;;;;;5.75;5.10;;;32.60;4.50;;;;;;4989991;28;20038;-85
2022/08/14 12:16:08;;;;;;;5.30;4.80;;;32.70;2.30;;;;;;5027736;28;20053;-85
2022/08/14 12:18:36;;;;;;;5.32;4.82;;;32.50;1.60;;;;;;5001705;28;20129;-85
2022/08/14 12:21:18;;;;;;;5.15;4.75;;;32.70;1.00;;;;;;5023858;28;20030;-85
2022/08/14 12:24:07;;;;;;;6.05;4.60;;;33.10;1.00;;;;;;4992455;28;20414;-86
2022/08/14 12:26:35;;;;;;;5.75;4.80;;;33.10;1.00;;;;;;5004030;28;20038;-86
2022/08/14 12:29:19;;;;;;;5.47;4.97;;;33.30;1.00;;;;;;4986385;28;20038;-85
2022/08/14 12:31:44;;;;;;;6.70;4.40;;;32.90;1.00;;;;;;5001782;28;20050;-85
2022/08/14 12:34:12;;;;;;;5.82;4.82;;;33.10;1.00;;;;;;5001365;28;20046;-85
2022/08/14 12:36:38;;;;;;;5.20;4.70;;;33.20;1.00;;;;;;5004360;28;20044;-86
2022/08/14 12:39:19;;;;;;;6.80;4.90;;;33.00;1.00;;;;;;4991731;28;20085;-86
2022/08/14 12:41:55;;;;;;;5.57;4.63;;;32.10;1.00;;;;;;5000161;28;20042;-86
2022/08/14 12:44:38;;;;;;;6.35;4.80;;;31.90;1.00;;;;;;4988513;28;20037;-85
2022/08/14 12:47:06;;;;;;;5.60;4.72;;;33.00;1.00;;;;;;5016286;28;20042;-85
2022/08/14 12:49:33;;;;;;;5.97;4.88;;;33.40;1.00;;;;;;5004256;28;20060;-86
2022/08/14 12:52:01;;;;;;;5.60;4.20;;;32.90;1.00;;;;;;5004773;28;20038;-86
2022/08/14 12:54:28;;;;;;;6.25;4.22;;;33.00;1.00;;;;;;4986239;28;20045;-86
2022/08/14 12:57:10;;;;;;;4.72;4.05;;;33.70;1.00;;;;;;5002793;28;20046;-85
2022/08/14 12:59:38;;;;;;;;;;;34.00;1.00;;;;;;5016291;28;20034;-85
2022/08/14 13:02:05;;;;;;;5.32;4.45;;;34.20;1.00;;;;;;5009675;28;19928;-85
2022/08/14 13:04:31;;;;;;;4.85;4.45;;;34.40;1.00;;;;;;4986157;28;20167;-86
2022/08/14 13:07:07;;;;;;;4.78;4.28;;;34.40;1.00;;;;;;5008674;28;20355;-85
2022/08/14 13:09:33;;;;;;;4.97;4.45;;;34.50;1.00;;;;;;5011940;28;20029;-86